createdAt,value
2022-12-22T00:03:08.139Z,112.95
2022-12-22T00:06:35.590Z,107.93
2022-12-22T00:10:02.168Z,104.58
2022-12-22T00:13:33.678Z,103.25
2022-12-22T00:17:01.428Z,105.35
2022-12-22T00:20:36.470Z,102.58
2022-12-22T00:24:03.211Z,111.70
2022-12-22T00:27:39.111Z,114.78
2022-12-22T00:31:05.988Z,114.43
2022-12-22T00:34:37.163Z,107.58
2022-12-22T00:38:03.938Z,113.53
2022-12-22T00:41:30.943Z,104.53
2022-12-22T00:44:57.854Z,102.68
2022-12-22T00:48:26.810Z,103.18
2022-12-22T00:51:54.890Z,94.95
2022-12-22T00:55:22.180Z,91.03
2022-12-22T00:58:49.549Z,95.22
2022-12-22T01:02:16.565Z,91.33
2022-12-22T01:05:44.052Z,93.73
2022-12-22T01:09:11.168Z,95.88
2022-12-22T01:12:41.919Z,101.50
2022-12-22T01:16:08.853Z,85.90
2022-12-22T01:19:35.746Z,62.03
2022-12-22T01:23:02.915Z,82.23
2022-12-22T01:29:57.520Z,86.00
2022-12-22T01:33:24.186Z,83.77
2022-12-22T01:36:51.125Z,77.05
2022-12-22T01:40:18.002Z,78.95
2022-12-22T01:43:47.926Z,77.05
2022-12-22T01:47:35.007Z,80.28
2022-12-22T01:51:01.853Z,86.08
2022-12-22T01:54:29.874Z,78.70
2022-12-22T01:57:57.232Z,79.48
2022-12-22T02:01:24.583Z,80.40
2022-12-22T02:04:55.562Z,87.13
2022-12-22T02:08:32.642Z,90.78
2022-12-22T02:12:06.351Z,80.00
2022-12-22T02:15:41.769Z,82.13
2022-12-22T02:19:13.492Z,84.00
2022-12-22T02:22:47.008Z,85.10
2022-12-22T02:26:19.533Z,83.20
2022-12-22T02:29:51.199Z,81.55
2022-12-22T02:33:18.272Z,81.43
2022-12-22T02:36:50.846Z,80.30
2022-12-22T02:40:23.730Z,82.90
2022-12-22T02:44:04.189Z,83.00
2022-12-22T02:47:37.240Z,85.30
2022-12-22T02:51:08.448Z,84.25
2022-12-22T02:54:36.868Z,80.78
2022-12-22T02:58:03.722Z,92.95
2022-12-22T03:01:31.365Z,88.65
2022-12-22T03:04:58.641Z,87.17
2022-12-22T03:08:25.794Z,86.53
2022-12-22T03:11:52.385Z,82.55
2022-12-22T03:15:19.033Z,87.77
2022-12-22T03:18:45.728Z,88.83
2022-12-22T03:22:12.879Z,83.20
2022-12-22T03:25:40.139Z,73.88
2022-12-22T03:28:52.671Z,78.33
2022-12-22T03:32:05.015Z,81.60
2022-12-22T03:35:17.605Z,75.90
2022-12-22T03:38:30.743Z,67.53
2022-12-22T03:41:57.774Z,75.33
2022-12-22T03:45:28.186Z,70.65
2022-12-22T03:48:40.376Z,81.03
2022-12-22T03:51:54.451Z,82.05
2022-12-22T03:55:07.965Z,79.73
2022-12-22T03:58:20.375Z,75.08
2022-12-22T04:01:33.270Z,75.53
2022-12-22T04:04:45.763Z,78.33
2022-12-22T04:07:58.180Z,80.73
2022-12-22T04:11:24.973Z,70.65
2022-12-22T04:14:37.200Z,72.75
2022-12-22T04:17:49.436Z,65.08
2022-12-22T04:21:01.808Z,65.40
2022-12-22T04:24:15.470Z,68.78
2022-12-22T04:27:27.888Z,67.53
2022-12-22T04:30:40.209Z,63.88
2022-12-22T04:33:52.765Z,59.35
2022-12-22T04:37:14.838Z,60.40
2022-12-22T04:40:19.711Z,70.23
2022-12-22T04:43:31.976Z,63.03
2022-12-22T04:46:44.230Z,61.40
2022-12-22T04:49:56.539Z,57.98
2022-12-22T04:53:08.913Z,61.38
2022-12-22T04:56:21.262Z,58.18
2022-12-22T04:59:33.779Z,65.40
2022-12-22T05:02:46.560Z,60.93
2022-12-22T05:05:59.063Z,63.03
2022-12-22T05:09:11.766Z,62.00
2022-12-22T05:12:38.874Z,67.35
2022-12-22T05:15:51.865Z,62.05
2022-12-22T05:19:04.015Z,60.23
2022-12-22T05:22:16.971Z,58.45
2022-12-22T05:25:34.806Z,60.35
2022-12-22T05:28:44.211Z,66.95
2022-12-22T05:31:56.426Z,63.20
2022-12-22T05:35:10.713Z,59.10
2022-12-22T05:38:23.071Z,60.80
2022-12-22T05:41:35.287Z,64.60
2022-12-22T05:44:47.844Z,62.43
2022-12-22T05:48:00.557Z,66.88
2022-12-22T05:51:14.357Z,65.83
2022-12-22T05:54:26.703Z,64.15
2022-12-22T05:57:39.475Z,60.80
2022-12-22T06:00:51.963Z,64.15
2022-12-22T06:04:04.988Z,68.28
2022-12-22T06:07:18.584Z,65.65
2022-12-22T06:10:31.958Z,64.40
2022-12-22T06:13:44.434Z,62.35
2022-12-22T06:16:56.810Z,66.18
2022-12-22T06:20:10.699Z,70.45
2022-12-22T06:23:23.229Z,74.28
2022-12-22T06:26:35.387Z,70.65
2022-12-22T06:29:49.219Z,65.38
2022-12-22T06:33:03.863Z,61.90
2022-12-22T06:36:18.076Z,67.20
2022-12-22T06:39:31.845Z,60.88
2022-12-22T06:43:13.461Z,63.90
2022-12-22T06:46:26.836Z,58.73
2022-12-22T06:49:42.488Z,70.60
2022-12-22T06:52:54.905Z,223.65
2022-12-22T06:56:07.389Z,106.03
2022-12-22T06:59:19.918Z,82.95
2022-12-22T07:02:32.704Z,68.33
2022-12-22T07:05:45.885Z,65.30
2022-12-22T07:08:58.676Z,72.08
2022-12-22T07:12:11.851Z,67.65
2022-12-22T07:15:24.394Z,74.15
2022-12-22T07:18:39.228Z,69.78
2022-12-22T07:21:51.485Z,66.65
2022-12-22T07:25:04.063Z,71.35
2022-12-22T07:28:20.603Z,64.50
2022-12-22T07:31:30.800Z,62.00
2022-12-22T07:34:43.069Z,57.73
2022-12-22T07:37:57.233Z,59.53
2022-12-22T07:41:14.182Z,63.05
2022-12-22T07:44:26.823Z,56.83
2022-12-22T07:47:39.129Z,61.10
2022-12-22T07:50:51.341Z,53.80
2022-12-22T07:54:04.736Z,65.53
2022-12-22T07:57:17.282Z,60.40
2022-12-22T08:00:31.415Z,62.25
2022-12-22T08:03:43.742Z,57.60
2022-12-22T08:06:56.394Z,53.35
2022-12-22T08:10:09.407Z,54.65
2022-12-22T08:13:21.665Z,63.88
2022-12-22T08:16:34.817Z,58.23
2022-12-22T08:19:48.800Z,60.33
2022-12-22T08:23:02.374Z,60.65
2022-12-22T08:26:19.670Z,55.90
2022-12-22T08:29:36.203Z,62.85
2022-12-22T08:32:51.700Z,56.33
2022-12-22T08:36:08.244Z,58.05
2022-12-22T08:39:20.824Z,64.93
2022-12-22T08:42:34.609Z,64.58
2022-12-22T08:45:47.832Z,64.08
2022-12-22T08:49:01.781Z,66.75
2022-12-22T08:52:18.348Z,66.03
2022-12-22T08:55:29.063Z,66.70
2022-12-22T08:58:41.319Z,68.05
2022-12-22T09:01:54.393Z,75.35
2022-12-22T09:05:06.654Z,78.45
2022-12-22T09:08:19.009Z,71.33
2022-12-22T09:11:32.284Z,70.13
2022-12-22T09:14:44.653Z,70.73
2022-12-22T09:17:57.705Z,75.08
2022-12-22T09:21:10.174Z,67.85
2022-12-22T09:24:23.493Z,67.05
2022-12-22T09:27:38.065Z,68.20
2022-12-22T09:30:55.257Z,89.83
2022-12-22T09:34:10.701Z,73.73
2022-12-22T09:37:24.052Z,77.48
2022-12-22T09:40:37.972Z,69.83
2022-12-22T09:43:50.988Z,67.28
2022-12-22T09:47:07.625Z,61.10
2022-12-22T09:50:25.376Z,69.83
2022-12-22T09:53:39.212Z,68.00
2022-12-22T09:56:51.617Z,75.70
2022-12-22T10:00:11.492Z,69.88
2022-12-22T10:03:37.748Z,66.48
2022-12-22T10:06:56.849Z,70.78
2022-12-22T10:10:26.166Z,73.65
2022-12-22T10:13:40.142Z,305.98
2022-12-22T10:16:52.886Z,79.68
2022-12-22T10:20:29.896Z,78.78
2022-12-22T10:23:49.380Z,71.58
2022-12-22T10:27:08.488Z,74.75
2022-12-22T10:30:32.991Z,80.85
2022-12-22T10:33:47.962Z,82.40
2022-12-22T10:37:07.097Z,76.83
2022-12-22T10:40:30.650Z,103.38
2022-12-22T10:43:51.027Z,81.90
2022-12-22T10:47:15.453Z,87.63
2022-12-22T10:50:24.707Z,86.70
2022-12-22T10:53:54.682Z,89.93
2022-12-22T10:57:33.414Z,99.05
2022-12-22T11:00:47.353Z,115.20
2022-12-22T11:03:59.905Z,109.35
2022-12-22T11:07:17.136Z,131.55
2022-12-22T11:10:39.022Z,140.00
2022-12-22T11:14:18.669Z,146.30
2022-12-22T11:17:38.246Z,136.40
2022-12-22T11:21:04.329Z,134.65
2022-12-22T11:24:28.961Z,133.10
2022-12-22T11:27:48.305Z,104.88
2022-12-22T11:31:12.098Z,96.08
2022-12-22T11:34:39.188Z,92.70
2022-12-22T11:37:56.437Z,92.95
2022-12-22T11:44:44.055Z,92.65
2022-12-22T11:48:03.011Z,88.20
2022-12-22T11:51:27.299Z,87.33
2022-12-22T11:55:08.941Z,85.75
2022-12-22T11:58:43.618Z,84.35
2022-12-22T12:02:20.735Z,108.68
2022-12-22T12:06:09.382Z,93.73
2022-12-22T12:12:50.005Z,85.10
2022-12-22T12:16:07.770Z,80.63
2022-12-22T12:20:12.643Z,115.48
2022-12-22T12:23:48.026Z,90.53
2022-12-22T12:27:07.636Z,82.03
2022-12-22T12:30:39.864Z,81.95
2022-12-22T12:33:47.289Z,103.15
2022-12-22T12:37:03.193Z,91.90
2022-12-22T12:40:29.358Z,98.98
2022-12-22T12:43:42.979Z,107.10
2022-12-22T12:47:11.963Z,113.90
2022-12-22T12:50:41.657Z,114.40
2022-12-22T12:54:28.032Z,110.15
2022-12-22T12:57:54.606Z,112.37
2022-12-22T13:01:07.283Z,109.00
2022-12-22T13:04:35.487Z,107.53
2022-12-22T13:08:26.978Z,112.38
2022-12-22T13:15:07.355Z,107.50
2022-12-22T13:18:50.807Z,102.50
2022-12-22T13:22:01.915Z,107.93
2022-12-22T13:25:22.580Z,113.58
2022-12-22T13:28:35.966Z,106.13
2022-12-22T13:31:53.402Z,105.38
2022-12-22T13:35:37.499Z,119.58
2022-12-22T13:38:39.760Z,139.60
2022-12-22T13:41:54.471Z,116.73
2022-12-22T13:45:10.807Z,111.50
2022-12-22T13:48:29.146Z,103.98
2022-12-22T13:51:44.658Z,107.98
2022-12-22T13:54:57.185Z,105.35
2022-12-22T13:58:15.856Z,111.53
2022-12-22T14:01:28.710Z,114.28
2022-12-22T14:04:42.868Z,112.65
2022-12-22T14:08:10.454Z,110.43
2022-12-22T14:14:38.237Z,114.85
2022-12-22T14:17:53.218Z,113.58
2022-12-22T14:21:05.579Z,108.50
2022-12-22T14:24:23.488Z,105.43
2022-12-22T14:27:43.255Z,110.00
2022-12-22T14:30:59.957Z,107.13
2022-12-22T14:34:32.682Z,122.78
2022-12-22T14:37:44.939Z,107.13
2022-12-22T14:40:59.263Z,101.25
2022-12-22T14:44:15.532Z,108.43
2022-12-22T14:47:31.808Z,117.27
2022-12-22T14:50:48.585Z,117.98
2022-12-22T14:54:04.229Z,121.28
2022-12-22T14:57:23.492Z,129.95
2022-12-22T15:00:42.652Z,125.68
2022-12-22T15:04:10.033Z,125.00
2022-12-22T15:10:47.444Z,111.30
2022-12-22T15:14:00.174Z,108.23
2022-12-22T15:17:26.239Z,108.05
2022-12-22T15:20:39.547Z,86.83
2022-12-22T15:23:53.352Z,77.40
2022-12-22T15:27:05.545Z,91.55
2022-12-22T15:30:28.829Z,94.90
2022-12-22T15:33:41.242Z,103.03
2022-12-22T15:36:53.602Z,109.48
2022-12-22T15:40:06.545Z,110.38
2022-12-22T15:46:36.190Z,61.35
2022-12-22T15:49:49.352Z,28.28
2022-12-22T15:53:04.911Z,30.20
2022-12-22T15:56:39.354Z,16.53
2022-12-22T16:04:12.236Z,16.58
2022-12-22T16:07:25.151Z,16.85
2022-12-22T16:10:40.261Z,15.18
2022-12-22T16:13:56.493Z,13.13
2022-12-22T16:20:17.975Z,18.65
2022-12-22T16:23:34.079Z,15.68
2022-12-22T16:26:51.233Z,18.70
2022-12-22T16:30:03.922Z,16.45
2022-12-22T16:33:18.717Z,43.65
2022-12-22T16:36:30.906Z,54.15
2022-12-22T16:39:43.189Z,39.55
2022-12-22T16:46:34.154Z,18.28
2022-12-22T16:49:46.453Z,16.03
2022-12-22T16:52:58.571Z,12.40
2022-12-22T16:56:13.479Z,11.18
2022-12-22T16:59:25.744Z,11.70
2022-12-22T17:02:40.585Z,12.48
2022-12-22T17:05:56.102Z,11.75
2022-12-22T17:09:11.150Z,14.30
2022-12-22T17:12:28.509Z,8.95
2022-12-22T17:15:41.277Z,8.50
2022-12-22T17:18:53.874Z,12.30
2022-12-22T17:22:06.926Z,11.05
2022-12-22T17:25:26.323Z,9.55
2022-12-22T17:28:42.355Z,8.83
2022-12-22T17:31:56.920Z,13.33
2022-12-22T17:35:10.262Z,11.20
2022-12-22T17:38:27.079Z,11.63
2022-12-22T17:44:51.672Z,9.90
2022-12-22T17:48:04.269Z,9.48
2022-12-22T17:51:24.915Z,9.98
2022-12-22T17:54:37.873Z,8.88
2022-12-22T17:57:52.059Z,8.90
2022-12-22T18:01:04.493Z,9.43
2022-12-22T18:04:16.762Z,10.88
2022-12-22T18:07:30.877Z,10.68
2022-12-22T18:10:45.881Z,14.00
2022-12-22T18:13:59.252Z,12.55
2022-12-22T18:17:13.124Z,13.63
2022-12-22T18:20:28.694Z,12.03
2022-12-22T18:23:49.563Z,12.60
2022-12-22T18:26:57.638Z,12.15
2022-12-22T18:30:21.632Z,12.18
2022-12-22T18:33:33.831Z,15.15
2022-12-22T18:36:47.744Z,11.88
2022-12-22T18:40:00.011Z,14.20
2022-12-22T18:43:17.964Z,12.35
2022-12-22T18:46:31.887Z,18.13
2022-12-22T18:49:44.402Z,13.38
2022-12-22T18:52:58.419Z,13.33
2022-12-22T18:56:13.342Z,13.45
2022-12-22T18:59:33.628Z,13.30
2022-12-22T19:02:46.033Z,13.63
2022-12-22T19:05:58.603Z,11.90
2022-12-22T19:09:15.052Z,14.75
2022-12-22T19:12:28.824Z,13.63
2022-12-22T19:15:43.943Z,11.83
2022-12-22T19:18:57.961Z,12.18
2022-12-22T19:22:10.286Z,13.90
2022-12-22T19:25:25.268Z,12.38
2022-12-22T19:28:41.118Z,12.68
2022-12-22T19:31:53.744Z,20.10
2022-12-22T19:35:06.218Z,19.03
2022-12-22T19:38:28.180Z,12.58
2022-12-22T19:41:49.921Z,13.30
2022-12-22T19:45:08.496Z,12.70
2022-12-22T19:48:24.775Z,15.33
2022-12-22T19:51:38.702Z,13.05
2022-12-22T19:54:52.275Z,13.18
2022-12-22T19:58:07.664Z,11.65
2022-12-22T20:01:21.717Z,14.73
2022-12-22T20:04:37.747Z,14.08
2022-12-22T20:07:51.506Z,12.55
2022-12-22T20:11:05.965Z,11.45
2022-12-22T20:14:22.271Z,13.13
2022-12-22T20:17:36.966Z,9.28
2022-12-22T20:20:57.552Z,10.35
2022-12-22T20:24:15.549Z,11.55
2022-12-22T20:27:35.319Z,11.40
2022-12-22T20:30:49.557Z,12.78
2022-12-22T20:34:02.518Z,12.13
2022-12-22T20:37:21.729Z,10.40
2022-12-22T20:40:37.049Z,9.68
2022-12-22T20:43:49.500Z,10.15
2022-12-22T20:47:01.516Z,12.78
2022-12-22T20:50:25.861Z,13.23
2022-12-22T20:53:38.494Z,11.28
2022-12-22T20:56:51.655Z,10.78
2022-12-22T21:00:04.416Z,14.35
2022-12-22T21:03:17.758Z,11.53
2022-12-22T21:06:36.681Z,9.70
2022-12-22T21:09:49.916Z,11.85
2022-12-22T21:13:04.648Z,10.83
2022-12-22T21:16:26.461Z,12.90
2022-12-22T21:19:38.679Z,10.80
2022-12-22T21:22:51.007Z,12.63
2022-12-22T21:26:04.565Z,10.80
2022-12-22T21:29:24.274Z,32.63
2022-12-22T21:32:36.470Z,12.38
2022-12-22T21:35:48.813Z,14.85
2022-12-22T21:39:03.797Z,11.35
2022-12-22T21:42:20.284Z,10.70
2022-12-22T21:45:41.007Z,13.15
2022-12-22T21:48:50.813Z,12.45
2022-12-22T21:52:03.750Z,11.13
2022-12-22T21:55:17.373Z,11.90
2022-12-22T21:58:30.285Z,11.33
2022-12-22T22:01:45.289Z,9.55
2022-12-22T22:04:58.219Z,9.53
2022-12-22T22:08:14.137Z,11.33
2022-12-22T22:11:30.300Z,13.28
2022-12-22T22:14:44.908Z,11.70
2022-12-22T22:18:02.986Z,11.13
2022-12-22T22:21:18.410Z,12.65
2022-12-22T22:24:30.905Z,10.88
2022-12-22T22:27:47.664Z,15.70
2022-12-22T22:30:59.557Z,13.43
2022-12-22T22:34:12.516Z,11.90
2022-12-22T22:37:24.632Z,12.43
2022-12-22T22:40:36.825Z,10.10
2022-12-22T22:43:48.849Z,10.30
2022-12-22T22:47:01.068Z,10.58
2022-12-22T22:50:15.572Z,10.93
2022-12-22T22:53:27.656Z,10.35
2022-12-22T22:56:39.947Z,11.75
2022-12-22T22:59:54.798Z,10.53
2022-12-22T23:03:07.975Z,8.88
2022-12-22T23:06:20.917Z,9.05
2022-12-22T23:09:32.964Z,11.38
2022-12-22T23:12:44.988Z,10.03
2022-12-22T23:16:04.235Z,10.65
2022-12-22T23:19:16.394Z,7.20
2022-12-22T23:22:28.546Z,6.43
2022-12-22T23:25:40.702Z,7.20
2022-12-22T23:28:59.240Z,7.68
2022-12-22T23:32:09.782Z,7.45
2022-12-22T23:35:21.980Z,9.30
2022-12-22T23:38:34.034Z,7.68
2022-12-22T23:41:46.016Z,6.70
2022-12-22T23:44:58.176Z,7.40
2022-12-22T23:48:10.702Z,8.65
2022-12-22T23:51:22.834Z,8.70
2022-12-22T23:54:34.903Z,10.80
2022-12-22T23:57:46.904Z,7.93
